Time;durP1;ratioP1;P1;durP2;ratioP2;P2;SDS_P1;SDS_P2;PMS_P1;PMS_P2;Temp;Humidity;BMP_temperature;BMP_pressure;BME280_temperature;BME280_humidity;BME280_pressure;Samples;Min_cycle;Max_cycle;Signal;HPM_P1;HPM_P2
2022/10/26 00:02:19;;;;;;;10.82;6.05;;;;;;;10.90;100.00;101288.59;5010519;28;20057;-79
2022/10/26 00:04:45;;;;;;;12.15;6.63;;;;;;;10.91;100.00;101284.16;5024051;28;20030;-79
2022/10/26 00:07:10;;;;;;;14.75;7.30;;;;;;;10.92;100.00;101275.31;5011665;28;20471;-79
2022/10/26 00:09:36;;;;;;;14.15;6.70;;;;;;;10.88;100.00;101276.47;4994849;28;20033;-80
2022/10/26 00:12:01;;;;;;;12.40;6.53;;;;;;;10.92;100.00;101272.69;5010821;28;20026;-79
2022/10/26 00:14:27;;;;;;;8.48;6.40;;;;;;;10.91;100.00;101265.72;5011777;28;20080;-79
2022/10/26 00:16:52;;;;;;;10.13;6.50;;;;;;;10.92;100.00;101260.38;5012422;28;20049;-80
2022/10/26 00:19:17;;;;;;;11.60;7.15;;;;;;;10.93;100.00;101261.22;5009668;28;20050;-79
2022/10/26 00:21:42;;;;;;;11.10;6.65;;;;;;;10.95;100.00;101261.94;4996441;28;20479;-80
2022/10/26 00:24:10;;;;;;;12.85;6.97;;;;;;;10.97;100.00;101267.94;4991721;28;20138;-79
2022/10/26 00:26:35;;;;;;;11.32;6.72;;;;;;;10.98;100.00;101254.66;4992458;28;20033;-79
2022/10/26 00:29:00;;;;;;;14.30;7.00;;;;;;;11.00;100.00;101249.31;4992095;28;20026;-79
2022/10/26 00:31:26;;;;;;;14.85;6.60;;;;;;;11.02;100.00;101241.28;4990645;28;20038;-79
2022/10/26 00:33:53;;;;;;;11.65;6.35;;;;;;;11.00;100.00;101236.13;4985766;28;20426;-79
2022/10/26 00:36:19;;;;;;;9.82;6.13;;;;;;;11.00;100.00;101244.03;5010621;28;20021;-79
2022/10/26 00:38:53;;;;;;;16.05;6.53;;;;;;;11.01;100.00;101256.25;4995457;28;20287;-80
2022/10/26 00:41:22;;;;;;;13.52;6.53;;;;;;;11.00;100.00;101262.47;4990679;28;20029;-79
2022/10/26 00:43:48;;;;;;;10.38;6.43;;;;;;;11.01;100.00;101258.88;4973621;28;20108;-79
2022/10/26 00:46:36;;;;;;;14.45;6.57;;;;;;;11.06;100.00;101266.47;4989916;28;20070;-79
2022/10/26 00:49:07;;;;;;;13.82;6.90;;;;;;;11.05;100.00;101259.50;4990752;28;20034;-79
2022/10/26 00:51:39;;;;;;;13.43;6.32;;;;;;;11.09;100.00;101256.56;4991082;28;20559;-80
2022/10/26 00:54:11;;;;;;;12.65;6.32;;;;;;;11.12;100.00;101255.50;4994793;28;20075;-79
2022/10/26 00:56:37;;;;;;;12.07;6.35;;;;;;;11.15;100.00;101255.28;4991278;28;20113;-79
2022/10/26 00:59:06;;;;;;;13.63;6.65;;;;;;;11.15;100.00;101248.22;4990930;28;20133;-79
2022/10/26 01:01:35;;;;;;;12.65;6.53;;;;;;;11.16;100.00;101242.00;4972539;28;20501;-80
2022/10/26 01:04:00;;;;;;;14.90;5.80;;;;;;;11.14;100.00;101238.63;5002637;28;20389;-79
2022/10/26 01:06:28;;;;;;;13.73;6.78;;;;;;;11.14;100.00;101236.00;5009238;28;20401;-79
2022/10/26 01:08:53;;;;;;;8.57;6.10;;;;;;;11.17;100.00;101235.78;5011062;28;20033;-79
2022/10/26 01:11:19;;;;;;;9.35;6.30;;;;;;;11.19;100.00;101231.25;4991761;28;20026;-79
2022/10/26 01:13:46;;;;;;;9.70;5.95;;;;;;;11.19;100.00;101238.31;4996188;28;20223;-79
2022/10/26 01:16:26;;;;;;;12.10;6.38;;;;;;;11.22;100.00;101228.44;4994674;28;20049;-79
2022/10/26 01:19:07;;;;;;;10.20;5.90;;;;;;;11.22;100.00;101225.78;5010963;28;20025;-79
2022/10/26 01:21:48;;;;;;;11.63;6.32;;;;;;;11.24;100.00;101223.91;5009790;28;20041;-80
2022/10/26 01:24:55;;;;;;;9.65;6.20;;;;;;;11.28;100.00;101214.81;5010393;28;20390;-79
2022/10/26 01:27:32;;;;;;;11.13;5.97;;;;;;;11.25;100.00;101209.78;4992443;28;20033;-79
2022/10/26 01:30:40;;;;;;;10.52;6.40;;;;;;;11.30;100.00;101212.06;5015179;28;20053;-78
2022/10/26 01:33:14;;;;;;;9.70;6.13;;;;;;;11.28;100.00;101212.19;4928389;29;20135;-79
2022/10/26 01:35:51;;;;;;;11.52;6.18;;;;;;;11.30;100.00;101210.28;4948947;28;20066;-78
2022/10/26 01:38:39;;;;;;;10.35;6.15;;;;;;;11.34;100.00;101210.91;4989153;28;20509;-79
2022/10/26 01:41:15;;;;;;;7.93;5.97;;;;;;;11.35;100.00;101207.31;5028598;28;20036;-79
2022/10/26 01:43:48;;;;;;;11.40;6.70;;;;;;;11.33;100.00;101206.59;5011061;28;20060;-79
2022/10/26 01:46:15;;;;;;;11.88;6.50;;;;;;;11.33;100.00;101203.94;5010336;28;20117;-79
2022/10/26 01:48:43;;;;;;;12.63;6.82;;;;;;;11.33;100.00;101203.94;5014157;28;20386;-79
2022/10/26 01:51:11;;;;;;;14.00;6.93;;;;;;;11.30;100.00;101202.38;5009567;28;20033;-79
2022/10/26 01:53:43;;;;;;;8.93;6.85;;;;;;;11.33;100.00;101200.47;4992079;28;20034;-80
2022/10/26 01:56:18;;;;;;;10.98;7.25;;;;;;;11.31;100.00;101197.94;4990904;28;20061;-80
2022/10/26 01:59:17;;;;;;;13.38;7.20;;;;;;;11.35;100.00;101198.56;5009708;28;20056;-80
2022/10/26 02:02:11;;;;;;;16.52;7.22;;;;;;;11.34;100.00;101204.78;4997938;28;20545;-80
2022/10/26 02:04:59;;;;;;;10.15;7.43;;;;;;;11.27;100.00;101197.34;5013805;28;20065;-79
2022/10/26 02:07:33;;;;;;;13.07;7.30;;;;;;;11.30;100.00;101191.00;5028321;28;20104;-79
2022/10/26 02:10:18;;;;;;;12.05;7.25;;;;;;;11.34;100.00;101186.34;5028040;28;20025;-80
2022/10/26 02:13:13;;;;;;;13.80;7.00;;;;;;;11.34;100.00;101175.81;5011536;28;20033;-79
2022/10/26 02:15:44;;;;;;;15.38;7.40;;;;;;;11.34;100.00;101181.94;5012020;28;20023;-79
2022/10/26 02:18:27;;;;;;;16.25;8.20;;;;;;;11.32;100.00;101178.56;5007969;28;20034;-79
2022/10/26 02:20:59;;;;;;;13.50;7.43;;;;;;;11.34;100.00;101175.81;5010390;28;20109;-79
2022/10/26 02:23:28;;;;;;;11.45;6.93;;;;;;;11.36;100.00;101171.28;5010269;28;20084;-79
2022/10/26 02:26:00;;;;;;;12.38;6.90;;;;;;;11.36;100.00;101174.75;5009263;28;20061;-79
2022/10/26 02:28:39;;;;;;;12.63;7.13;;;;;;;11.37;100.00;101170.31;4992508;28;20026;-79
2022/10/26 02:31:06;;;;;;;9.93;6.63;;;;;;;11.39;100.00;101176.31;4991450;28;20500;-80
2022/10/26 02:33:38;;;;;;;11.70;6.72;;;;;;;11.38;100.00;101172.84;5000802;28;20379;-79
2022/10/26 02:36:08;;;;;;;10.68;6.60;;;;;;;11.38;100.00;101172.84;4988896;28;20022;-79
2022/10/26 02:38:35;;;;;;;11.50;6.30;;;;;;;11.41;100.00;101163.88;5008251;28;20033;-79
2022/10/26 02:41:02;;;;;;;25.05;6.78;;;;;;;11.39;100.00;101165.78;5008106;28;20022;-79
2022/10/26 02:43:32;;;;;;;10.93;6.90;;;;;;;11.39;100.00;101164.00;4990993;28;20426;-79
2022/10/26 02:46:05;;;;;;;11.05;5.97;;;;;;;11.40;100.00;101164.84;4990503;28;20390;-79
2022/10/26 02:48:31;;;;;;;9.90;5.55;;;;;;;11.40;100.00;101152.50;5008538;28;20030;-79
2022/10/26 02:51:25;;;;;;;10.85;5.88;;;;;;;11.41;100.00;101156.81;4985658;28;20129;-79
2022/10/26 02:54:04;;;;;;;13.30;5.47;;;;;;;11.39;100.00;101160.50;4987553;28;20109;-79
2022/10/26 02:57:00;;;;;;;11.25;5.22;;;;;;;11.43;100.00;101154.06;4992600;28;20820;-79
2022/10/26 02:59:29;;;;;;;12.05;5.07;;;;;;;11.42;100.00;101155.88;4986145;28;20042;-79
2022/10/26 03:01:55;;;;;;;11.82;5.00;;;;;;;11.43;100.00;101159.34;4997939;28;20030;-79
2022/10/26 03:04:28;;;;;;;7.68;4.50;;;;;;;11.44;100.00;101153.13;4987456;28;20033;-79
2022/10/26 03:06:54;;;;;;;9.88;4.90;;;;;;;11.46;100.00;101159.13;4992847;28;20017;-79
2022/10/26 03:09:19;;;;;;;10.95;4.53;;;;;;;11.47;100.00;101147.63;5011816;28;20077;-79
2022/10/26 03:11:45;;;;;;;9.48;4.53;;;;;;;11.45;100.00;101147.72;4994754;28;20025;-78
2022/10/26 03:14:10;;;;;;;9.73;4.47;;;;;;;11.47;100.00;101150.25;4993796;28;20018;-79
2022/10/26 03:16:35;;;;;;;9.02;4.70;;;;;;;11.48;100.00;101146.66;5002482;28;20899;-78
2022/10/26 03:19:01;;;;;;;10.40;4.35;;;;;;;11.49;100.00;101145.72;5014366;28;20036;-79
2022/10/26 03:21:27;;;;;;;12.27;4.50;;;;;;;11.48;100.00;101150.16;5014139;28;20072;-79
2022/10/26 03:23:53;;;;;;;10.15;4.40;;;;;;;11.49;100.00;101148.34;5015336;28;20033;-79
2022/10/26 03:26:18;;;;;;;10.45;4.28;;;;;;;11.50;100.00;101144.75;5012688;28;20030;-79
2022/10/26 03:28:43;;;;;;;14.20;4.38;;;;;;;11.48;100.00;101141.41;5011025;28;20022;-79
2022/10/26 03:31:09;;;;;;;10.18;4.05;;;;;;;11.52;100.00;101146.31;5021387;28;20028;-79
2022/10/26 03:33:35;;;;;;;8.00;4.00;;;;;;;11.51;100.00;101138.53;5024286;28;20072;-80
2022/10/26 03:36:00;;;;;;;10.45;3.92;;;;;;;11.52;100.00;101138.44;5012329;28;20486;-80
2022/10/26 03:38:25;;;;;;;10.05;3.72;;;;;;;11.52;100.00;101137.59;5013159;28;20037;-80
2022/10/26 03:40:51;;;;;;;9.00;3.63;;;;;;;11.51;100.00;101139.38;4994891;28;20026;-79
2022/10/26 03:43:17;;;;;;;7.25;3.40;;;;;;;11.49;100.00;101132.53;5012000;28;20398;-79
2022/10/26 03:45:42;;;;;;;8.20;4.00;;;;;;;11.49;100.00;101137.81;5006256;28;20037;-79
2022/10/26 03:48:08;;;;;;;9.70;4.03;;;;;;;11.49;100.00;101137.81;5032216;28;20625;-79
2022/10/26 03:50:33;;;;;;;8.18;3.75;;;;;;;11.49;100.00;101137.81;5031525;28;20473;-79
2022/10/26 03:52:58;;;;;;;8.38;3.80;;;;;;;11.49;100.00;101138.66;5031007;28;20022;-80
2022/10/26 03:55:27;;;;;;;11.80;3.95;;;;;;;11.52;100.00;101137.59;5013166;28;20036;-80
2022/10/26 03:57:52;;;;;;;10.18;3.90;;;;;;;11.51;100.00;101133.28;5014059;28;20029;-81
2022/10/26 04:00:17;;;;;;;9.45;3.58;;;;;;;11.50;100.00;101134.22;5019201;28;20501;-80
2022/10/26 04:02:46;;;;;;;8.20;3.38;;;;;;;11.50;100.00;101139.50;5009152;28;20032;-80
2022/10/26 04:05:13;;;;;;;6.90;3.72;;;;;;;11.51;100.00;101138.53;5030447;28;20029;-80
2022/10/26 04:07:38;;;;;;;8.95;3.88;;;;;;;11.50;100.00;101139.50;5012435;28;20111;-80
2022/10/26 04:10:04;;;;;;;9.88;3.58;;;;;;;11.50;100.00;101139.50;5029939;28;20152;-80
2022/10/26 04:12:29;;;;;;;13.45;3.47;;;;;;;11.51;100.00;101141.16;5017953;28;20061;-80
2022/10/26 04:14:58;;;;;;;7.53;3.53;;;;;;;11.52;100.00;101143.69;4993871;28;20536;-80
2022/10/26 04:17:24;;;;;;;7.78;3.40;;;;;;;11.54;100.00;101136.50;5010242;28;20107;-81
2022/10/26 04:19:49;;;;;;;8.52;3.25;;;;;;;11.54;100.00;101136.50;4991649;28;20014;-80
2022/10/26 04:22:15;;;;;;;8.27;3.38;;;;;;;11.57;100.00;101138.94;5010811;28;20329;-80
2022/10/26 04:24:40;;;;;;;10.57;3.60;;;;;;;11.60;100.00;101129.94;5010750;28;20076;-80
2022/10/26 04:27:05;;;;;;;9.50;3.80;;;;;;;11.61;100.00;101135.13;5010741;28;20087;-81
2022/10/26 04:29:31;;;;;;;8.48;3.55;;;;;;;11.63;100.00;101135.03;5010919;28;20076;-80
2022/10/26 04:31:56;;;;;;;9.82;3.78;;;;;;;11.65;100.00;101127.84;5010134;28;20139;-79
2022/10/26 04:34:21;;;;;;;7.68;3.58;;;;;;;11.66;100.00;101129.53;4993490;28;20044;-80
2022/10/26 04:36:47;;;;;;;11.23;3.88;;;;;;;11.68;100.00;101127.63;5009949;28;20057;-79
2022/10/26 04:39:12;;;;;;;8.45;3.70;;;;;;;11.71;100.00;101131.81;5010009;28;20022;-80
2022/10/26 04:41:37;;;;;;;10.30;3.58;;;;;;;11.73;100.00;101125.47;5011544;28;20021;-79
2022/10/26 04:44:02;;;;;;;9.45;3.80;;;;;;;11.74;100.00;101121.88;5011484;28;20386;-79
2022/10/26 04:46:28;;;;;;;8.32;3.42;;;;;;;11.76;100.00;101122.59;5010640;28;20029;-79
2022/10/26 04:48:53;;;;;;;8.15;3.40;;;;;;;11.78;100.00;101127.78;4993620;28;20026;-79
2022/10/26 04:51:18;;;;;;;9.95;4.05;;;;;;;11.80;100.00;101134.63;5010623;28;20018;-79
2022/10/26 04:53:44;;;;;;;8.82;3.83;;;;;;;11.80;100.00;101126.72;5002848;28;20037;-80
2022/10/26 04:56:09;;;;;;;10.27;4.22;;;;;;;11.79;100.00;101135.59;4991286;28;20023;-80
2022/10/26 04:58:35;;;;;;;13.90;3.85;;;;;;;11.79;100.00;101140.03;4991155;28;20479;-79
2022/10/26 05:01:01;;;;;;;9.90;3.67;;;;;;;11.81;100.00;101138.94;4973305;28;20372;-80
2022/10/26 05:03:27;;;;;;;12.40;3.90;;;;;;;11.84;100.00;101137.88;4996594;28;20113;-80
2022/10/26 05:05:52;;;;;;;8.18;3.70;;;;;;;11.86;100.00;101135.97;5009337;28;20180;-80
2022/10/26 05:08:17;;;;;;;8.65;3.50;;;;;;;11.85;100.00;101140.41;5007643;28;20128;-80
2022/10/26 05:10:47;;;;;;;8.18;3.97;;;;;;;11.86;100.00;101139.44;4994966;28;20056;-80
2022/10/26 05:13:13;;;;;;;8.38;4.05;;;;;;;11.90;100.00;101142.69;4989334;28;20034;-80
2022/10/26 05:15:38;;;;;;;9.90;3.53;;;;;;;11.89;100.00;101139.22;4973176;28;20029;-79
2022/10/26 05:18:04;;;;;;;11.02;3.67;;;;;;;11.90;100.00;101140.06;5009289;28;20413;-79
2022/10/26 05:20:32;;;;;;;8.05;3.50;;;;;;;11.90;100.00;101142.69;5014589;28;20486;-79
2022/10/26 05:23:00;;;;;;;10.23;3.53;;;;;;;11.95;100.00;101144.97;5017774;28;20515;-79
2022/10/26 05:25:27;;;;;;;12.32;3.67;;;;;;;11.92;100.00;101146.91;5006791;28;20033;-78
2022/10/26 05:28:04;;;;;;;7.45;3.17;;;;;;;11.96;100.00;101144.03;5029104;28;20029;-80
2022/10/26 05:30:30;;;;;;;8.90;3.28;;;;;;;11.97;100.00;101148.34;5029435;28;20078;-80
2022/10/26 05:33:01;;;;;;;9.20;3.38;;;;;;;11.97;100.00;101149.19;5030081;28;20037;-80
2022/10/26 05:35:28;;;;;;;7.47;2.80;;;;;;;11.97;100.00;101143.06;4993767;28;20026;-79
2022/10/26 05:37:53;;;;;;;9.43;2.90;;;;;;;12.00;100.00;101148.09;5010835;28;20471;-81
2022/10/26 05:40:19;;;;;;;6.72;2.78;;;;;;;12.01;100.00;101149.78;5011418;28;20033;-80
2022/10/26 05:42:44;;;;;;;8.60;3.33;;;;;;;12.04;100.00;101149.59;5007668;28;20385;-78
2022/10/26 05:45:11;;;;;;;5.35;2.75;;;;;;;12.04;100.00;101145.16;5010203;28;20044;-81
2022/10/26 05:47:40;;;;;;;9.43;3.38;;;;;;;12.06;100.00;101150.31;4992295;28;20118;-81
2022/10/26 05:50:07;;;;;;;7.97;3.38;;;;;;;12.09;100.00;101155.34;5010059;28;20033;-81
2022/10/26 05:52:44;;;;;;;10.05;2.80;;;;;;;12.10;100.00;101154.41;4992849;28;20032;-82
2022/10/26 05:55:13;;;;;;;6.85;2.80;;;;;;;12.10;100.00;101154.41;5017284;28;20026;-79
2022/10/26 05:57:39;;;;;;;8.07;2.83;;;;;;;12.12;100.00;101158.59;5010289;28;20125;-80
2022/10/26 06:00:09;;;;;;;7.20;2.92;;;;;;;12.14;100.00;101156.69;5019917;28;20025;-81
2022/10/26 06:02:57;;;;;;;8.00;3.00;;;;;;;12.16;100.00;101160.03;5019274;28;20406;-79
2022/10/26 06:05:26;;;;;;;8.77;3.25;;;;;;;12.14;100.00;101166.41;5017970;28;20041;-79
2022/10/26 06:07:52;;;;;;;7.47;2.70;;;;;;;12.15;100.00;101163.63;5017933;28;20030;-81
2022/10/26 06:10:17;;;;;;;6.80;3.00;;;;;;;12.19;100.00;101169.53;5010153;28;20024;-80
2022/10/26 06:12:44;;;;;;;7.72;3.20;;;;;;;12.17;100.00;101166.16;5011522;28;20595;-79
2022/10/26 06:15:18;;;;;;;4.88;2.95;;;;;;;12.15;100.00;101176.00;5010618;28;20120;-80
2022/10/26 06:18:04;;;;;;;8.82;3.00;;;;;;;12.17;100.00;101176.72;5025407;28;20050;-79
2022/10/26 06:20:49;;;;;;;10.68;3.17;;;;;;;12.15;100.00;101170.72;5007743;28;20434;-79
2022/10/26 06:23:54;;;;;;;8.32;3.45;;;;;;;12.21;100.00;101167.59;5008005;28;20061;-80
2022/10/26 06:26:31;;;;;;;13.45;3.05;;;;;;;12.17;100.00;101155.59;4988154;28;20582;-81
2022/10/26 06:29:16;;;;;;;8.25;2.85;;;;;;;12.17;100.00;101161.72;5013452;28;20029;-79
2022/10/26 06:31:43;;;;;;;9.27;3.10;;;;;;;12.13;100.00;101180.53;5032797;28;20029;-81
2022/10/26 06:34:11;;;;;;;9.38;3.28;;;;;;;12.12;100.00;101169.16;5032866;28;20124;-79
2022/10/26 06:36:37;;;;;;;7.80;3.13;;;;;;;12.11;100.00;101162.19;5032803;28;20035;-80
2022/10/26 06:39:06;;;;;;;6.25;2.78;;;;;;;12.13;100.00;101159.44;5031100;28;20056;-80
2022/10/26 06:41:34;;;;;;;12.60;3.35;;;;;;;12.15;100.00;101157.53;5015125;28;20029;-80
2022/10/26 06:44:01;;;;;;;8.88;3.40;;;;;;;12.17;100.00;101155.59;5032896;28;20426;-79
2022/10/26 06:46:44;;;;;;;11.15;3.05;;;;;;;12.17;100.00;101156.44;5028823;28;20037;-80
2022/10/26 06:49:16;;;;;;;14.35;3.47;;;;;;;12.24;100.00;101156.81;5012398;28;20060;-80
2022/10/26 06:51:48;;;;;;;8.85;3.30;;;;;;;12.23;100.00;101161.25;5015681;28;20533;-80
2022/10/26 06:54:42;;;;;;;8.15;2.95;;;;;;;12.30;100.00;101156.34;5030438;28;20048;-80
2022/10/26 06:57:11;;;;;;;8.30;3.10;;;;;;;12.32;100.00;101157.06;5013009;28;20035;-80
2022/10/26 07:00:09;;;;;;;7.60;3.33;;;;;;;12.37;100.00;101165.47;5032385;28;20029;-80
2022/10/26 07:02:35;;;;;;;11.25;3.28;;;;;;;12.37;99.83;101154.91;5014990;28;20099;-78
2022/10/26 07:05:00;;;;;;;6.35;2.95;;;;;;;12.39;99.77;101160.91;5032012;28;20017;-79
2022/10/26 07:07:28;;;;;;;10.93;3.42;;;;;;;12.36;100.00;101171.72;5032468;28;20025;-81
2022/10/26 07:09:54;;;;;;;20.98;3.78;;;;;;;12.38;99.88;101169.78;5033090;28;20029;-78
2022/10/26 07:12:19;;;;;;;16.40;3.97;;;;;;;12.37;100.00;101173.41;5031591;28;20484;-78
2022/10/26 07:14:44;;;;;;;14.45;3.92;;;;;;;12.40;100.00;101183.72;5029052;28;20033;-77
2022/10/26 07:17:10;;;;;;;14.07;3.85;;;;;;;12.38;100.00;101185.63;5023098;28;20908;-77
2022/10/26 07:19:36;;;;;;;11.13;3.78;;;;;;;12.39;100.00;101182.03;5012773;28;20026;-78
2022/10/26 07:22:02;;;;;;;8.48;3.28;;;;;;;12.42;100.00;101189.75;5011069;28;20029;-79
2022/10/26 07:24:28;;;;;;;11.52;3.85;;;;;;;12.45;100.00;101189.50;5011201;28;20025;-79
2022/10/26 07:26:54;;;;;;;7.97;3.08;;;;;;;12.46;100.00;101199.09;5031236;28;20378;-79
2022/10/26 07:29:21;;;;;;;7.57;3.20;;;;;;;12.49;100.00;101198.88;5007602;28;20108;-79
2022/10/26 07:31:46;;;;;;;7.97;2.97;;;;;;;12.52;100.00;101201.28;5031803;28;20041;-79
2022/10/26 07:34:11;;;;;;;7.20;3.13;;;;;;;12.61;100.00;101198.88;5010236;28;20026;-79
2022/10/26 07:36:37;;;;;;;6.22;3.13;;;;;;;12.63;100.00;101204.88;5031857;28;20048;-79
2022/10/26 07:39:03;;;;;;;6.82;3.10;;;;;;;12.67;100.00;101203.69;5031829;28;20453;-79
2022/10/26 07:41:28;;;;;;;7.43;3.03;;;;;;;12.76;100.00;101209.09;5030947;28;20108;-79
2022/10/26 07:43:54;;;;;;;10.98;3.15;;;;;;;12.81;100.00;101208.75;5030989;28;20113;-80
2022/10/26 07:46:19;;;;;;;4.70;3.03;;;;;;;12.90;100.00;101228.31;5013387;28;20470;-79
2022/10/26 07:48:45;;;;;;;11.45;3.40;;;;;;;12.99;100.00;101236.38;5011987;28;20113;-79
2022/10/26 07:51:10;;;;;;;12.32;3.28;;;;;;;13.07;100.00;101233.13;5012133;28;20022;-84
2022/10/26 07:53:35;;;;;;;7.45;2.90;;;;;;;13.13;99.92;101237.94;5011758;28;20437;-81
2022/10/26 07:56:01;;;;;;;15.80;3.42;;;;;;;13.21;99.81;101242.63;5012268;28;20018;-83
2022/10/26 07:58:27;;;;;;;7.03;2.97;;;;;;;13.26;99.40;101236.06;5013813;28;20053;-81
2022/10/26 08:00:52;;;;;;;4.32;2.58;;;;;;;13.30;99.19;101241.94;5025715;28;20096;-81
2022/10/26 08:03:18;;;;;;;6.43;2.85;;;;;;;13.39;99.10;101242.03;5031522;28;20497;-81
2022/10/26 08:05:54;;;;;;;6.10;3.03;;;;;;;13.42;99.17;101246.25;5027645;28;20034;-81
2022/10/26 08:08:20;;;;;;;6.40;2.65;;;;;;;13.54;98.74;101250.53;5013064;28;20440;-81
2022/10/26 08:10:46;;;;;;;7.68;2.50;;;;;;;13.64;98.77;101251.50;5012584;28;20029;-80
2022/10/26 08:13:12;;;;;;;9.20;2.95;;;;;;;13.82;98.56;101248.31;5011320;28;20505;-82
2022/10/26 08:15:38;;;;;;;7.68;3.17;;;;;;;13.95;97.84;101249.84;5011536;28;20064;-81
2022/10/26 08:18:04;;;;;;;8.93;2.95;;;;;;;14.11;97.74;101241.50;5011850;28;20491;-81
2022/10/26 08:20:29;;;;;;;9.05;2.85;;;;;;;14.18;96.87;101242.66;4993437;28;20339;-79
2022/10/26 08:22:56;;;;;;;6.05;2.70;;;;;;;14.24;96.61;101250.09;5011261;28;20117;-80
2022/10/26 08:25:21;;;;;;;9.88;2.92;;;;;;;14.31;96.19;101253.91;4993933;28;20033;-82
2022/10/26 08:27:47;;;;;;;8.73;2.70;;;;;;;14.41;96.63;101260.16;5011907;28;20022;-83
2022/10/26 08:30:12;;;;;;;8.55;2.90;;;;;;;14.53;96.04;101255.66;5010497;28;20022;-81
2022/10/26 08:32:37;;;;;;;7.60;2.83;;;;;;;14.62;95.51;101256.69;5011629;28;20034;-82
2022/10/26 08:35:03;;;;;;;7.97;2.90;;;;;;;14.67;95.12;101257.97;5010671;28;20470;-81
2022/10/26 08:37:28;;;;;;;8.07;2.88;;;;;;;14.80;95.06;101252.47;4992417;28;20464;-82
2022/10/26 08:39:54;;;;;;;5.82;2.78;;;;;;;14.93;94.66;101253.13;5008624;28;20034;-81
2022/10/26 08:42:43;;;;;;;7.60;2.88;;;;;;;15.07;94.15;101259.88;5010908;28;20037;-81
2022/10/26 08:45:17;;;;;;;9.10;3.08;;;;;;;15.18;93.52;101272.19;4992820;28;20022;-82
2022/10/26 08:47:49;;;;;;;5.25;2.70;;;;;;;15.29;93.13;101264.16;5011156;28;20034;-82
2022/10/26 08:50:26;;;;;;;8.17;2.80;;;;;;;15.39;92.94;101267.69;5010882;28;20083;-82
2022/10/26 08:53:01;;;;;;;9.27;3.00;;;;;;;15.53;92.96;101253.19;4993037;28;20017;-82
2022/10/26 08:55:36;;;;;;;7.03;2.33;;;;;;;15.52;93.10;101249.72;4992855;28;20108;-82
2022/10/26 08:58:09;;;;;;;7.20;2.38;;;;;;;15.69;92.81;101240.31;4990782;28;20057;-82
2022/10/26 09:00:36;;;;;;;4.78;2.65;;;;;;;15.79;91.81;101230.53;5007444;28;20081;-82
2022/10/26 09:03:12;;;;;;;5.65;2.40;;;;;;;15.93;91.27;101243.41;5012198;28;20022;-82
2022/10/26 09:06:09;;;;;;;6.32;2.35;;;;;;;16.07;91.55;101244.81;4991791;28;20042;-82
2022/10/26 09:09:11;;;;;;;7.35;2.45;;;;;;;16.15;91.75;101244.94;5005663;28;20042;-81
2022/10/26 09:11:46;;;;;;;10.50;2.75;;;;;;;16.25;90.27;101263.53;4989983;28;20120;-83
2022/10/26 09:14:30;;;;;;;7.07;2.50;;;;;;;16.34;88.92;101272.47;5010694;28;20022;-81
2022/10/26 09:17:14;;;;;;;7.70;2.25;;;;;;;16.45;89.10;101278.50;5021190;28;20057;-84
2022/10/26 09:20:01;;;;;;;6.07;2.42;;;;;;;16.57;89.13;101281.84;5012164;28;20429;-80
2022/10/26 09:22:45;;;;;;;8.35;2.35;;;;;;;16.65;88.90;101297.91;5028482;28;20080;-80
2022/10/26 09:25:18;;;;;;;6.78;2.42;;;;;;;16.73;88.91;101302.53;5016133;28;20041;-80
2022/10/26 09:27:47;;;;;;;4.75;2.08;;;;;;;16.88;87.87;101309.94;5016982;28;20541;-80
2022/10/26 09:30:15;;;;;;;9.27;2.20;;;;;;;16.88;87.64;101299.31;5027549;28;20500;-81
2022/10/26 09:32:45;;;;;;;5.93;2.30;;;;;;;16.91;85.84;101314.13;5020683;28;20033;-81
2022/10/26 09:35:26;;;;;;;9.07;2.42;;;;;;;16.98;86.49;101325.03;5013767;28;20037;-81
2022/10/26 09:37:57;;;;;;;6.80;2.28;;;;;;;17.03;84.97;101328.09;5010477;28;20152;-80
2022/10/26 09:40:36;;;;;;;7.07;2.40;;;;;;;17.09;86.21;101338.16;5027691;28;20017;-82
2022/10/26 09:43:11;;;;;;;9.85;2.42;;;;;;;17.08;84.78;101331.16;5029537;28;20025;-79
2022/10/26 09:45:40;;;;;;;9.45;2.55;;;;;;;17.09;85.80;101328.34;5016222;28;20025;-80
2022/10/26 09:48:19;;;;;;;7.95;2.70;;;;;;;17.09;85.82;101331.00;5016305;28;20417;-80
2022/10/26 09:50:48;;;;;;;6.82;2.70;;;;;;;17.11;86.11;101322.88;5024162;28;20115;-82
2022/10/26 09:53:15;;;;;;;7.63;2.97;;;;;;;17.07;85.18;101326.81;5020843;28;20026;-80
2022/10/26 09:55:43;;;;;;;8.55;2.40;;;;;;;17.08;85.39;101331.16;5023953;28;20079;-80
2022/10/26 09:58:43;;;;;;;11.63;2.92;;;;;;;17.16;87.31;101347.22;5002391;28;20057;-80
2022/10/26 10:01:29;;;;;;;8.25;2.63;;;;;;;17.16;86.75;101356.03;5017445;28;20069;-80
2022/10/26 10:04:13;;;;;;;8.02;2.85;;;;;;;17.22;86.94;101352.84;5018121;28;20060;-80
2022/10/26 10:06:39;;;;;;;7.18;2.65;;;;;;;17.24;85.28;101344.69;5020561;28;20379;-81
2022/10/26 10:09:16;;;;;;;5.70;2.42;;;;;;;17.32;86.21;101354.63;5006041;28;20017;-80
2022/10/26 10:12:02;;;;;;;7.32;2.22;;;;;;;17.42;86.29;101350.09;5027773;28;20034;-80
2022/10/26 10:14:31;;;;;;;7.07;2.42;;;;;;;17.51;86.04;101358.03;5011476;28;20386;-81
2022/10/26 10:17:00;;;;;;;8.55;2.50;;;;;;;17.58;84.97;101360.09;5028048;28;20123;-81
2022/10/26 10:19:31;;;;;;;8.63;2.67;;;;;;;17.68;85.23;101376.94;5011719;28;20025;-81
2022/10/26 10:22:08;;;;;;;7.90;2.58;;;;;;;17.73;84.41;101380.00;5011614;28;20033;-80
2022/10/26 10:24:35;;;;;;;8.10;2.45;;;;;;;17.75;84.39;101378.00;5029820;28;20036;-80
2022/10/26 10:27:05;;;;;;;5.65;2.63;;;;;;;17.78;84.03;101389.19;5029366;28;20048;-79
2022/10/26 10:29:33;;;;;;;7.10;2.58;;;;;;;17.87;84.48;101390.13;5029021;28;20032;-79
2022/10/26 10:32:01;;;;;;;8.02;2.65;;;;;;;17.92;83.52;101395.03;5029025;28;20021;-80
2022/10/26 10:34:29;;;;;;;7.45;2.85;;;;;;;18.02;83.82;101401.16;5010127;28;20036;-80
2022/10/26 10:36:55;;;;;;;8.07;2.78;;;;;;;18.15;84.28;101388.31;5025656;28;20591;-80
2022/10/26 10:39:36;;;;;;;10.50;2.40;;;;;;;18.22;82.72;101409.88;5011410;28;20450;-79
2022/10/26 10:42:05;;;;;;;5.35;2.30;;;;;;;18.21;81.75;101405.53;5028808;28;20033;-79
2022/10/26 10:44:32;;;;;;;7.57;2.50;;;;;;;18.24;82.46;101411.38;5028081;28;20029;-79
2022/10/26 10:47:03;;;;;;;6.70;2.13;;;;;;;18.29;81.95;101421.59;5028649;28;20080;-80
2022/10/26 10:49:29;;;;;;;8.98;2.53;;;;;;;18.32;82.19;101407.97;5010335;28;20026;-80
2022/10/26 10:51:56;;;;;;;7.43;2.20;;;;;;;18.36;81.76;101418.19;5022918;28;20029;-78
2022/10/26 10:54:38;;;;;;;7.78;2.28;;;;;;;18.27;81.30;101420.91;5024267;28;20025;-79
2022/10/26 10:57:38;;;;;;;5.60;2.05;;;;;;;18.25;83.10;101428.22;5010907;28;20017;-79
2022/10/26 11:00:08;;;;;;;8.63;2.30;;;;;;;18.17;82.41;101432.47;5028149;28;20025;-80
2022/10/26 11:02:58;;;;;;;7.95;2.53;;;;;;;18.17;82.50;101435.13;5011082;28;20028;-79
2022/10/26 11:06:01;;;;;;;7.07;2.03;;;;;;;18.26;83.78;101435.22;5028931;28;20032;-79
2022/10/26 11:08:31;;;;;;;5.25;2.10;;;;;;;18.35;83.84;101444.97;5027928;28;20033;-79
2022/10/26 11:11:02;;;;;;;3.80;1.60;;;;;;;18.39;83.00;101441.00;5029555;28;20034;-81
2022/10/26 11:13:37;;;;;;;9.88;1.98;;;;;;;18.52;83.27;101440.69;5028702;28;20044;-79
2022/10/26 11:16:10;;;;;;;9.73;2.10;;;;;;;18.57;82.17;101444.56;5012962;28;20379;-79
2022/10/26 11:18:41;;;;;;;5.50;2.00;;;;;;;18.65;81.07;101450.00;5032538;28;20493;-81
2022/10/26 11:21:28;;;;;;;9.07;1.90;;;;;;;18.77;82.75;101462.13;5032782;28;20013;-81
2022/10/26 11:24:09;;;;;;;6.53;1.80;;;;;;;18.74;80.47;101462.41;5013728;28;20051;-82
2022/10/26 11:26:52;;;;;;;5.90;2.05;;;;;;;18.75;81.67;101464.09;5007969;28;20144;-80
2022/10/26 11:29:31;;;;;;;;;;;;;;;18.82;83.60;101453.69;5024337;28;20022;-81
2022/10/26 11:32:02;;;;;;;7.07;1.80;;;;;;;18.78;81.67;101466.47;4998360;28;19921;-82
2022/10/26 11:34:37;;;;;;;4.75;1.75;;;;;;;18.86;80.88;101464.88;5032423;28;20080;-83
2022/10/26 11:37:22;;;;;;;5.78;2.00;;;;;;;18.96;81.59;101465.63;5014674;28;20067;-81